Time;durP1;ratioP1;P1;durP2;ratioP2;P2;SDS_P1;SDS_P2;PMS_P1;PMS_P2;Temp;Humidity;BMP_temperature;BMP_pressure;BME280_temperature;BME280_humidity;BME280_pressure;Samples;Min_cycle;Max_cycle;Signal;HPM_P1;HPM_P2
2023/05/09 00:02:23;;;;;;;3.70;2.03;;;15.20;89.40;;;;;;4988456;28;20046;-71
2023/05/09 00:04:48;;;;;;;2.90;1.80;;;15.20;89.40;;;;;;4991113;28;20452;-72
2023/05/09 00:07:14;;;;;;;3.30;1.83;;;15.10;89.40;;;;;;4991310;28;20084;-71
2023/05/09 00:09:40;;;;;;;3.05;1.70;;;15.10;89.40;;;;;;4995688;28;20038;-71
2023/05/09 00:12:06;;;;;;;3.45;2.15;;;15.10;89.30;;;;;;5013916;28;20048;-70
2023/05/09 00:14:32;;;;;;;2.97;1.73;;;15.10;89.30;;;;;;5031153;28;20052;-70
2023/05/09 00:16:58;;;;;;;3.70;2.00;;;15.10;89.40;;;;;;5084488;28;20043;-70
2023/05/09 00:19:24;;;;;;;2.92;1.80;;;15.20;89.40;;;;;;5113786;28;20038;-71
2023/05/09 00:21:49;;;;;;;3.60;2.03;;;15.30;89.40;;;;;;5113049;28;20035;-71
2023/05/09 00:24:15;;;;;;;3.83;1.90;;;15.20;89.30;;;;;;5113686;28;20040;-71
2023/05/09 00:26:41;;;;;;;2.65;1.77;;;15.20;89.30;;;;;;5094707;28;20108;-71
2023/05/09 00:29:06;;;;;;;4.40;2.22;;;15.20;89.30;;;;;;5112992;28;20050;-71
2023/05/09 00:31:32;;;;;;;3.85;2.05;;;15.20;89.30;;;;;;5112975;28;20036;-71
2023/05/09 00:33:58;;;;;;;4.78;2.40;;;15.20;89.30;;;;;;5113557;28;20040;-71
2023/05/09 00:36:23;;;;;;;3.67;2.05;;;15.20;89.40;;;;;;5094622;28;20032;-71
2023/05/09 00:38:49;;;;;;;3.22;1.90;;;15.20;89.40;;;;;;5113429;28;20384;-71
2023/05/09 00:41:22;;;;;;;3.83;1.92;;;15.20;89.40;;;;;;5112783;28;20040;-70
2023/05/09 00:43:47;;;;;;;4.18;1.90;;;15.20;89.40;;;;;;5094720;28;20043;-71
2023/05/09 00:46:13;;;;;;;3.70;1.92;;;15.20;89.40;;;;;;5094419;28;20062;-71
2023/05/09 00:48:39;;;;;;;4.63;2.50;;;15.20;89.40;;;;;;5112766;28;20040;-71
2023/05/09 00:51:07;;;;;;;4.53;2.17;;;15.10;89.40;;;;;;5094984;28;20046;-71
2023/05/09 00:53:32;;;;;;;2.88;1.73;;;15.20;89.40;;;;;;5070024;28;20050;-71
2023/05/09 00:55:59;;;;;;;3.47;1.98;;;15.20;90.00;;;;;;5069860;28;20047;-71
2023/05/09 00:58:25;;;;;;;4.72;2.10;;;15.10;89.40;;;;;;5069625;28;20106;-71
2023/05/09 01:00:51;;;;;;;3.47;2.00;;;15.20;89.60;;;;;;5069744;28;20045;-70
2023/05/09 01:03:17;;;;;;;2.80;1.90;;;15.20;89.60;;;;;;5070233;28;20049;-71
2023/05/09 01:05:57;;;;;;;4.03;2.05;;;15.10;89.60;;;;;;5069929;28;20516;-71
2023/05/09 01:08:36;;;;;;;2.90;1.50;;;15.20;89.70;;;;;;5069867;28;20045;-71
2023/05/09 01:11:11;;;;;;;2.85;1.85;;;15.10;89.60;;;;;;5076279;28;20509;-71
2023/05/09 01:14:06;;;;;;;2.88;1.85;;;15.10;89.60;;;;;;5060206;28;20487;-71
2023/05/09 01:16:41;;;;;;;3.10;1.95;;;15.20;89.60;;;;;;5076453;28;20048;-71
2023/05/09 01:19:46;;;;;;;3.78;2.15;;;15.20;89.60;;;;;;5076457;28;20071;-71
2023/05/09 01:22:15;;;;;;;4.43;2.15;;;15.20;89.60;;;;;;5059543;28;20042;-71
2023/05/09 01:25:11;;;;;;;2.78;1.70;;;15.20;89.50;;;;;;5066949;28;20046;-72
2023/05/09 01:27:52;;;;;;;3.00;1.83;;;15.30;89.60;;;;;;5118862;28;20032;-71
2023/05/09 01:30:18;;;;;;;3.03;1.63;;;15.20;89.50;;;;;;5119262;28;20043;-71
2023/05/09 01:32:48;;;;;;;3.33;1.67;;;15.20;89.50;;;;;;5118846;28;20073;-71
2023/05/09 01:35:15;;;;;;;3.80;1.95;;;15.20;89.60;;;;;;5100911;28;20481;-71
2023/05/09 01:37:42;;;;;;;3.70;2.00;;;15.20;89.60;;;;;;5100561;28;20047;-71
2023/05/09 01:40:14;;;;;;;3.30;1.95;;;15.20;89.60;;;;;;5118650;28;20048;-71
2023/05/09 01:42:44;;;;;;;3.67;1.85;;;15.20;89.70;;;;;;5119130;28;20516;-71
2023/05/09 01:45:11;;;;;;;3.27;1.57;;;15.20;89.60;;;;;;5119275;28;20043;-71
2023/05/09 01:47:38;;;;;;;3.65;2.05;;;15.10;89.50;;;;;;5100464;28;20320;-71
2023/05/09 01:50:05;;;;;;;3.88;2.13;;;15.10;89.60;;;;;;5118558;28;20070;-71
2023/05/09 01:52:32;;;;;;;3.83;2.00;;;15.20;89.60;;;;;;5101102;28;20040;-71
2023/05/09 01:55:01;;;;;;;4.53;2.50;;;15.20;89.60;;;;;;5118724;28;20052;-70
2023/05/09 01:57:29;;;;;;;3.97;2.15;;;15.20;89.70;;;;;;5118658;28;20162;-70
2023/05/09 01:59:57;;;;;;;4.55;2.40;;;15.20;89.60;;;;;;5100279;28;20063;-71
2023/05/09 02:02:24;;;;;;;4.15;1.90;;;15.20;89.60;;;;;;5100531;28;20040;-71
2023/05/09 02:04:50;;;;;;;4.53;2.40;;;15.20;89.60;;;;;;5118848;28;20044;-71
2023/05/09 02:07:16;;;;;;;3.70;2.00;;;15.20;89.70;;;;;;5100117;28;20047;-71
2023/05/09 02:09:42;;;;;;;3.47;1.92;;;15.20;89.60;;;;;;5118946;28;20058;-72
2023/05/09 02:12:08;;;;;;;4.00;1.98;;;15.20;89.60;;;;;;5100856;28;20392;-71
2023/05/09 02:14:33;;;;;;;5.30;1.95;;;15.20;89.70;;;;;;5118679;28;20028;-71
2023/05/09 02:17:05;;;;;;;3.20;1.92;;;15.20;89.70;;;;;;5100874;28;20377;-71
2023/05/09 02:19:34;;;;;;;4.32;2.20;;;15.20;89.70;;;;;;5118906;28;20043;-71
2023/05/09 02:22:00;;;;;;;3.47;1.90;;;15.20;89.70;;;;;;5079461;28;20031;-72
2023/05/09 02:24:26;;;;;;;4.40;2.20;;;15.20;89.70;;;;;;5115696;28;20130;-71
2023/05/09 02:26:53;;;;;;;4.78;2.17;;;15.10;89.70;;;;;;5114961;28;20123;-71
2023/05/09 02:29:24;;;;;;;4.13;2.05;;;15.20;89.80;;;;;;5114979;28;20036;-71
2023/05/09 02:31:51;;;;;;;3.85;1.83;;;15.20;89.80;;;;;;5115439;28;20047;-71
2023/05/09 02:34:18;;;;;;;3.72;1.83;;;15.10;89.80;;;;;;5079844;28;20559;-72
2023/05/09 02:36:44;;;;;;;3.63;2.00;;;15.20;89.90;;;;;;5114886;28;20055;-72
2023/05/09 02:39:10;;;;;;;2.75;1.77;;;15.10;89.90;;;;;;5096509;28;20078;-72
2023/05/09 02:41:36;;;;;;;3.50;2.08;;;15.10;89.90;;;;;;5079974;28;20562;-71
2023/05/09 02:44:02;;;;;;;3.05;1.77;;;15.10;90.00;;;;;;5096440;28;20043;-71
2023/05/09 02:46:28;;;;;;;3.97;2.17;;;15.10;90.00;;;;;;5096102;28;20075;-72
2023/05/09 02:48:54;;;;;;;3.05;1.77;;;15.10;90.00;;;;;;5114717;28;20497;-72
2023/05/09 02:51:20;;;;;;;3.67;2.00;;;15.10;90.00;;;;;;5114483;28;20032;-72
2023/05/09 02:53:45;;;;;;;4.22;2.17;;;15.10;90.00;;;;;;5096315;28;20042;-72
2023/05/09 02:56:11;;;;;;;3.25;1.85;;;15.10;90.00;;;;;;5079206;28;20381;-72
2023/05/09 02:58:37;;;;;;;4.40;2.10;;;15.10;90.00;;;;;;5079313;28;20044;-72
2023/05/09 03:01:03;;;;;;;4.40;2.38;;;15.10;90.10;;;;;;5114514;28;20043;-72
2023/05/09 03:03:32;;;;;;;4.07;2.00;;;15.10;90.10;;;;;;5096084;28;20051;-72
2023/05/09 03:05:58;;;;;;;4.45;2.17;;;15.10;90.10;;;;;;5096537;28;20039;-72
2023/05/09 03:08:23;;;;;;;4.47;2.60;;;15.00;90.10;;;;;;5114070;28;20542;-72
2023/05/09 03:10:50;;;;;;;3.38;1.90;;;15.10;90.10;;;;;;5114187;28;20081;-72
2023/05/09 03:13:15;;;;;;;4.00;2.25;;;15.10;90.10;;;;;;5095761;28;20039;-72
2023/05/09 03:15:41;;;;;;;3.03;1.73;;;15.00;90.10;;;;;;5095831;28;20157;-72
2023/05/09 03:18:07;;;;;;;4.50;2.40;;;15.00;90.10;;;;;;5114564;28;20078;-72
2023/05/09 03:20:32;;;;;;;4.22;2.30;;;15.00;90.10;;;;;;5114080;28;20068;-72
2023/05/09 03:22:58;;;;;;;5.70;2.50;;;15.00;90.10;;;;;;5113951;28;20044;-72
2023/05/09 03:25:25;;;;;;;4.68;2.40;;;15.00;90.10;;;;;;5078660;28;20042;-72
2023/05/09 03:27:50;;;;;;;4.18;2.30;;;15.00;90.10;;;;;;5095784;28;20156;-72
2023/05/09 03:30:16;;;;;;;5.25;2.60;;;15.00;90.20;;;;;;5114419;28;20043;-72
2023/05/09 03:32:42;;;;;;;2.88;1.77;;;15.00;90.20;;;;;;5094822;28;21305;-71
2023/05/09 03:35:07;;;;;;;3.35;1.92;;;15.00;90.20;;;;;;5113819;28;20034;-73
2023/05/09 03:37:33;;;;;;;4.13;1.63;;;15.00;90.20;;;;;;5095570;28;20039;-72
2023/05/09 03:40:03;;;;;;;3.65;2.15;;;15.00;90.20;;;;;;5114268;28;20074;-72
2023/05/09 03:42:28;;;;;;;3.80;2.00;;;15.00;90.20;;;;;;5095930;28;20055;-72
2023/05/09 03:44:54;;;;;;;4.15;2.30;;;14.90;90.20;;;;;;5114038;28;20039;-72
2023/05/09 03:47:20;;;;;;;3.05;1.70;;;15.00;90.20;;;;;;5113589;28;20074;-72
2023/05/09 03:49:45;;;;;;;3.20;1.80;;;15.00;90.20;;;;;;5114179;28;20141;-72
2023/05/09 03:52:11;;;;;;;3.80;1.92;;;15.00;90.20;;;;;;5113610;28;20467;-72
2023/05/09 03:54:37;;;;;;;3.58;2.00;;;15.00;90.20;;;;;;5113835;28;20032;-72
2023/05/09 03:57:02;;;;;;;3.83;1.90;;;14.90;90.20;;;;;;5096066;28;20035;-72
2023/05/09 03:59:28;;;;;;;4.18;2.05;;;15.10;90.20;;;;;;5113993;28;20048;-72
2023/05/09 04:01:53;;;;;;;4.30;2.05;;;15.00;90.20;;;;;;5114103;28;20040;-72
2023/05/09 04:04:19;;;;;;;3.95;2.28;;;15.00;90.20;;;;;;5113687;28;20036;-72
2023/05/09 04:06:45;;;;;;;4.05;2.13;;;14.90;90.20;;;;;;5113707;28;20035;-72
2023/05/09 04:09:11;;;;;;;3.67;1.95;;;14.90;90.20;;;;;;5113699;28;20040;-72
2023/05/09 04:11:37;;;;;;;3.47;1.83;;;15.00;90.20;;;;;;5113697;28;20366;-72
2023/05/09 04:14:05;;;;;;;3.40;1.83;;;15.00;90.20;;;;;;5078554;28;20084;-72
2023/05/09 04:16:32;;;;;;;3.55;2.10;;;15.00;90.20;;;;;;5095247;28;20039;-72
2023/05/09 04:18:57;;;;;;;3.80;1.98;;;14.90;90.20;;;;;;5095068;28;20309;-72
2023/05/09 04:21:23;;;;;;;3.97;2.08;;;15.00;90.20;;;;;;5113292;28;20114;-72
2023/05/09 04:23:48;;;;;;;4.00;1.90;;;15.00;90.20;;;;;;5095191;28;20046;-72
2023/05/09 04:26:15;;;;;;;3.10;1.75;;;15.00;90.20;;;;;;5113338;28;20126;-72
2023/05/09 04:28:40;;;;;;;3.90;1.98;;;14.90;90.50;;;;;;5095134;28;20050;-72
2023/05/09 04:31:06;;;;;;;3.22;1.67;;;14.90;90.30;;;;;;5113336;28;20035;-73
2023/05/09 04:33:31;;;;;;;3.40;1.75;;;14.90;90.30;;;;;;5112928;28;20434;-72
2023/05/09 04:35:57;;;;;;;3.33;1.77;;;14.90;90.30;;;;;;5113638;28;20040;-72
2023/05/09 04:38:23;;;;;;;3.30;1.92;;;14.90;90.30;;;;;;5113499;28;20031;-72
2023/05/09 04:40:49;;;;;;;3.03;1.77;;;14.80;90.30;;;;;;5113553;28;20043;-73
2023/05/09 04:43:15;;;;;;;2.90;1.70;;;14.80;90.30;;;;;;5112928;28;20048;-73
2023/05/09 04:45:40;;;;;;;3.83;2.00;;;14.80;90.30;;;;;;5113130;28;20043;-73
2023/05/09 04:48:06;;;;;;;3.03;1.52;;;14.90;90.30;;;;;;5094658;28;20051;-74
2023/05/09 04:50:31;;;;;;;3.22;1.92;;;14.90;90.30;;;;;;5113493;28;20043;-73
2023/05/09 04:52:57;;;;;;;2.95;1.63;;;14.90;90.30;;;;;;5094701;28;20151;-73
2023/05/09 04:55:23;;;;;;;2.97;1.65;;;14.90;90.30;;;;;;5113214;28;20032;-73
2023/05/09 04:57:48;;;;;;;2.90;1.77;;;14.90;90.30;;;;;;5113277;28;20035;-73
2023/05/09 05:00:15;;;;;;;2.15;1.50;;;14.90;90.20;;;;;;5112976;28;20050;-73
2023/05/09 05:02:41;;;;;;;4.03;2.03;;;14.90;90.20;;;;;;5113317;28;20862;-73
2023/05/09 05:05:07;;;;;;;3.42;1.77;;;14.90;90.20;;;;;;5113174;28;20134;-72
2023/05/09 05:07:32;;;;;;;3.90;2.10;;;14.90;90.20;;;;;;5094312;28;20047;-73
2023/05/09 05:09:58;;;;;;;4.60;2.35;;;15.00;90.20;;;;;;5094548;28;20032;-73
2023/05/09 05:12:23;;;;;;;4.30;2.53;;;14.90;90.20;;;;;;5113304;28;20032;-73
2023/05/09 05:14:49;;;;;;;3.05;1.83;;;14.90;90.60;;;;;;5094540;28;20409;-73
2023/05/09 05:17:17;;;;;;;1.98;1.42;;;14.90;90.60;;;;;;5113440;28;20039;-73
2023/05/09 05:19:42;;;;;;;4.95;2.38;;;14.90;90.30;;;;;;5112660;28;20044;-73
2023/05/09 05:22:08;;;;;;;3.63;1.98;;;14.90;90.30;;;;;;5077541;28;20070;-69
2023/05/09 05:24:33;;;;;;;3.58;1.83;;;14.90;90.30;;;;;;5112665;28;20040;-69
2023/05/09 05:26:59;;;;;;;3.67;2.10;;;14.90;90.30;;;;;;5112500;28;20036;-69
2023/05/09 05:29:25;;;;;;;3.60;1.80;;;14.90;90.30;;;;;;5113012;28;20527;-69
2023/05/09 05:31:53;;;;;;;3.33;1.90;;;15.00;90.30;;;;;;5112485;28;20047;-69
2023/05/09 05:34:18;;;;;;;2.40;1.67;;;15.00;90.30;;;;;;5112569;28;20164;-69
2023/05/09 05:36:44;;;;;;;3.08;1.65;;;15.00;90.20;;;;;;5112368;28;20052;-69
2023/05/09 05:39:10;;;;;;;4.32;2.03;;;15.10;90.30;;;;;;5112878;28;20138;-69
2023/05/09 05:41:35;;;;;;;3.63;1.85;;;15.10;90.20;;;;;;5112836;28;20066;-69
2023/05/09 05:44:01;;;;;;;3.58;2.00;;;15.20;90.20;;;;;;5094673;28;20092;-69
2023/05/09 05:46:26;;;;;;;2.90;1.90;;;15.20;90.20;;;;;;5112598;28;20035;-69
2023/05/09 05:48:52;;;;;;;1.90;1.40;;;15.20;90.10;;;;;;5112241;28;20038;-69
2023/05/09 05:51:18;;;;;;;3.22;1.90;;;15.20;90.10;;;;;;5112425;28;20040;-69
2023/05/09 05:53:43;;;;;;;2.97;1.67;;;15.30;90.10;;;;;;5112383;28;20059;-69
2023/05/09 05:56:09;;;;;;;3.05;1.67;;;15.30;90.10;;;;;;5113754;28;20035;-69
2023/05/09 05:58:34;;;;;;;2.95;1.70;;;15.40;90.10;;;;;;5115872;28;20039;-69
2023/05/09 06:01:01;;;;;;;4.72;2.42;;;15.40;90.10;;;;;;5115828;28;20412;-69
2023/05/09 06:03:26;;;;;;;2.75;1.80;;;15.40;90.10;;;;;;5115564;28;20039;-69
2023/05/09 06:05:52;;;;;;;3.55;2.05;;;15.40;90.10;;;;;;5115976;28;20070;-72
2023/05/09 06:08:18;;;;;;;4.22;2.10;;;15.40;90.10;;;;;;5097025;28;20100;-72
2023/05/09 06:10:43;;;;;;;2.40;1.80;;;15.30;90.10;;;;;;5115722;28;20081;-72
2023/05/09 06:13:09;;;;;;;3.85;2.25;;;15.40;90.20;;;;;;5115755;28;20074;-72
2023/05/09 06:15:34;;;;;;;3.97;2.10;;;15.40;90.10;;;;;;5115742;28;20040;-73
2023/05/09 06:18:01;;;;;;;3.58;2.00;;;15.40;90.10;;;;;;5115766;28;20031;-72
2023/05/09 06:20:26;;;;;;;6.00;2.15;;;15.40;90.10;;;;;;5115199;28;20048;-72
2023/05/09 06:22:52;;;;;;;3.05;1.80;;;15.50;90.10;;;;;;5115272;28;20051;-73
2023/05/09 06:25:17;;;;;;;5.60;2.50;;;15.40;90.00;;;;;;5115100;28;20043;-72
2023/05/09 06:27:43;;;;;;;2.55;1.85;;;15.40;90.10;;;;;;5115514;28;20044;-72
2023/05/09 06:30:09;;;;;;;3.28;2.00;;;15.40;90.10;;;;;;5115749;28;20126;-73
2023/05/09 06:32:35;;;;;;;3.05;1.70;;;15.50;90.10;;;;;;5097053;28;20039;-73
2023/05/09 06:35:00;;;;;;;3.40;1.83;;;15.60;90.10;;;;;;5096945;28;20059;-73
2023/05/09 06:37:26;;;;;;;3.13;1.90;;;15.60;90.00;;;;;;5115129;28;20035;-73
2023/05/09 06:39:53;;;;;;;2.67;1.60;;;15.60;90.00;;;;;;5096934;28;20048;-73
2023/05/09 06:42:18;;;;;;;2.92;1.60;;;15.60;90.30;;;;;;5096811;28;20039;-73
2023/05/09 06:44:44;;;;;;;2.75;1.80;;;15.70;90.00;;;;;;5115597;28;20450;-73
2023/05/09 06:47:10;;;;;;;2.33;1.42;;;15.80;90.00;;;;;;5115504;28;20043;-73
2023/05/09 06:49:35;;;;;;;3.80;1.77;;;15.90;89.90;;;;;;5115481;28;20118;-73
2023/05/09 06:52:01;;;;;;;5.32;2.40;;;15.90;90.10;;;;;;5114960;28;20035;-74
2023/05/09 06:54:26;;;;;;;3.58;2.00;;;15.90;89.60;;;;;;5115387;28;20027;-73
2023/05/09 06:56:52;;;;;;;4.13;2.58;;;15.90;89.50;;;;;;5114917;28;20139;-73
2023/05/09 06:59:18;;;;;;;6.05;2.92;;;15.90;89.50;;;;;;5115166;28;20070;-73
2023/05/09 07:01:43;;;;;;;3.38;2.17;;;16.00;89.40;;;;;;5115092;28;20044;-73
2023/05/09 07:04:09;;;;;;;3.60;2.40;;;16.00;89.40;;;;;;5114541;28;20040;-73
2023/05/09 07:06:35;;;;;;;3.70;2.33;;;16.00;89.40;;;;;;5096119;28;20044;-73
2023/05/09 07:09:01;;;;;;;4.60;2.33;;;16.10;89.40;;;;;;5096313;28;20036;-72
2023/05/09 07:11:27;;;;;;;3.42;2.40;;;16.20;89.30;;;;;;5096048;28;20092;-72
2023/05/09 07:13:55;;;;;;;3.67;2.10;;;16.20;89.20;;;;;;5096244;28;20447;-72
2023/05/09 07:16:49;;;;;;;4.10;1.95;;;16.30;89.20;;;;;;5079073;28;20385;-72
2023/05/09 07:19:14;;;;;;;2.97;1.90;;;16.20;89.10;;;;;;5014537;28;20092;-72
2023/05/09 07:21:40;;;;;;;2.60;1.90;;;16.30;89.10;;;;;;5015017;28;20041;-72
2023/05/09 07:24:06;;;;;;;2.55;1.88;;;16.40;89.10;;;;;;5031439;28;20665;-71
2023/05/09 07:26:34;;;;;;;4.75;2.00;;;16.40;89.10;;;;;;5032288;28;20089;-72
2023/05/09 07:29:00;;;;;;;3.10;2.08;;;16.30;89.00;;;;;;5031531;28;20146;-72
2023/05/09 07:31:25;;;;;;;3.45;2.20;;;16.40;89.10;;;;;;5014716;28;20061;-72
2023/05/09 07:34:01;;;;;;;3.47;1.92;;;16.30;89.10;;;;;;5031203;28;20041;-73
2023/05/09 07:36:31;;;;;;;3.13;1.95;;;16.40;89.20;;;;;;4998397;28;20126;-72
2023/05/09 07:39:18;;;;;;;2.13;1.50;;;16.40;89.10;;;;;;4998922;28;20033;-72
2023/05/09 07:41:58;;;;;;;2.97;1.95;;;16.30;89.00;;;;;;4984903;28;20045;-72
2023/05/09 07:44:28;;;;;;;2.22;1.55;;;16.40;89.00;;;;;;4983523;28;20038;-72
2023/05/09 07:46:54;;;;;;;2.10;1.48;;;16.50;89.10;;;;;;4982543;28;20053;-72
2023/05/09 07:49:21;;;;;;;2.38;1.65;;;16.50;88.90;;;;;;5051191;28;20035;-72
2023/05/09 07:59:05;;;;;;;2.28;1.60;;;16.80;88.70;;;;;;4906735;29;20040;-72
2023/05/09 08:04:47;;;;;;;2.15;1.42;;;16.70;88.30;;;;;;4801374;29;20050;-73
2023/05/09 08:07:13;;;;;;;2.35;1.67;;;16.80;88.40;;;;;;4788977;29;20050;-71
2023/05/09 08:13:06;;;;;;;1.98;1.33;;;17.00;88.40;;;;;;4788034;29;20047;-72
2023/05/09 08:16:06;;;;;;;3.40;1.92;;;17.00;88.20;;;;;;4769208;29;20100;-72
2023/05/09 08:22:43;;;;;;;2.67;1.70;;;17.00;88.20;;;;;;4731261;30;20057;-72
2023/05/09 08:26:02;;;;;;;2.95;1.88;;;17.00;88.20;;;;;;4696449;30;20499;-72
2023/05/09 08:31:51;;;;;;;3.53;2.03;;;17.00;88.30;;;;;;4654397;30;20052;-73
2023/05/09 08:34:16;;;;;;;3.42;2.15;;;17.00;88.30;;;;;;4678515;30;20050;-72
2023/05/09 08:36:44;;;;;;;2.80;1.90;;;16.90;88.30;;;;;;4730259;30;20596;-72
2023/05/09 08:39:10;;;;;;;3.00;2.17;;;16.90;88.40;;;;;;4732142;30;20083;-71
2023/05/09 08:41:37;;;;;;;3.95;2.38;;;16.90;88.30;;;;;;4732567;30;20048;-71
2023/05/09 08:44:03;;;;;;;4.40;2.67;;;16.90;88.30;;;;;;4730535;30;20494;-72
2023/05/09 08:46:35;;;;;;;4.07;2.53;;;16.80;88.20;;;;;;4732105;30;20136;-71
2023/05/09 08:49:03;;;;;;;2.03;1.67;;;16.80;88.30;;;;;;4745453;30;20063;-71
2023/05/09 08:51:31;;;;;;;2.38;1.70;;;16.90;88.30;;;;;;4792065;29;20051;-71
2023/05/09 08:53:57;;;;;;;2.80;2.00;;;16.90;88.30;;;;;;4839188;29;20087;-71
2023/05/09 08:56:23;;;;;;;3.13;1.98;;;17.00;88.20;;;;;;4825418;29;20097;-71
2023/05/09 08:58:50;;;;;;;3.85;2.25;;;16.90;88.00;;;;;;4861726;29;20052;-70
2023/05/09 09:01:16;;;;;;;3.90;2.47;;;17.00;88.00;;;;;;5013159;28;20057;-71
2023/05/09 09:03:46;;;;;;;3.63;2.30;;;17.00;87.90;;;;;;5091825;28;20040;-71
2023/05/09 09:06:13;;;;;;;3.70;2.50;;;17.00;88.00;;;;;;5058048;28;20096;-71
2023/05/09 09:08:39;;;;;;;3.38;2.17;;;16.90;88.10;;;;;;5074181;28;20167;-71
2023/05/09 09:11:06;;;;;;;3.80;2.40;;;16.90;88.20;;;;;;5057672;28;20039;-70
2023/05/09 09:13:36;;;;;;;3.03;2.03;;;16.80;88.30;;;;;;5074717;28;20039;-71
2023/05/09 09:16:02;;;;;;;3.72;2.55;;;16.80;88.40;;;;;;5075211;28;20043;-71
2023/05/09 09:18:32;;;;;;;3.38;2.05;;;16.70;88.40;;;;;;5057244;28;20032;-72
2023/05/09 09:21:05;;;;;;;3.33;1.92;;;16.70;88.50;;;;;;5092203;28;20044;-71
2023/05/09 09:23:31;;;;;;;2.17;1.75;;;16.70;88.60;;;;;;5058045;28;20047;-71
2023/05/09 09:26:00;;;;;;;2.80;1.80;;;16.60;88.60;;;;;;5092169;28;20052;-70
2023/05/09 09:28:25;;;;;;;3.30;2.03;;;16.60;88.70;;;;;;5092388;28;20543;-71
2023/05/09 09:30:51;;;;;;;2.42;1.70;;;16.60;88.70;;;;;;5094387;28;20039;-70
2023/05/09 09:33:20;;;;;;;2.72;1.98;;;16.50;88.70;;;;;;5096171;28;20032;-71
2023/05/09 09:35:47;;;;;;;2.75;1.95;;;16.60;88.70;;;;;;5096065;28;20101;-71
2023/05/09 09:38:13;;;;;;;2.20;1.70;;;16.50;88.60;;;;;;5077438;28;20044;-71
2023/05/09 09:40:39;;;;;;;1.75;1.40;;;16.50;88.60;;;;;;5095583;28;20052;-72
2023/05/09 09:43:06;;;;;;;1.85;1.58;;;16.50;88.60;;;;;;5077988;28;20044;-70
2023/05/09 09:45:32;;;;;;;2.00;1.30;;;16.60;88.60;;;;;;5077240;28;20055;-72
2023/05/09 09:47:58;;;;;;;1.98;1.42;;;16.50;88.60;;;;;;5095393;28;20542;-70
2023/05/09 09:50:24;;;;;;;2.78;1.70;;;16.60;88.50;;;;;;5095882;28;20044;-71
2023/05/09 09:52:51;;;;;;;1.67;1.38;;;16.60;88.40;;;;;;5095989;28;20044;-72
2023/05/09 09:55:18;;;;;;;1.65;1.33;;;16.60;88.40;;;;;;5095510;28;20040;-71
2023/05/09 09:57:45;;;;;;;1.83;1.48;;;16.60;88.20;;;;;;5095775;28;20035;-70
2023/05/09 10:00:18;;;;;;;3.75;1.60;;;16.70;88.90;;;;;;5095217;28;20024;-69
2023/05/09 10:03:12;;;;;;;2.10;1.20;;;16.60;88.10;;;;;;5052499;28;20052;-70
2023/05/09 10:06:17;;;;;;;1.67;1.30;;;16.70;88.10;;;;;;5015354;28;20076;-72
2023/05/09 10:15:45;;;;;;;1.40;1.15;;;17.00;87.10;;;;;;4869244;29;20041;-71
2023/05/09 10:18:31;;;;;;;1.45;1.20;;;17.00;86.90;;;;;;4861845;29;20076;-71
2023/05/09 10:21:17;;;;;;;1.30;1.00;;;17.10;87.00;;;;;;4848297;29;20049;-71
2023/05/09 10:23:48;;;;;;;1.42;1.20;;;17.10;87.00;;;;;;4840750;29;20512;-70
2023/05/09 10:26:27;;;;;;;1.10;0.98;;;17.10;87.00;;;;;;4841569;29;20061;-71
2023/05/09 10:28:57;;;;;;;2.08;1.10;;;17.00;87.00;;;;;;4826722;29;20046;-71
2023/05/09 10:31:31;;;;;;;1.27;1.08;;;17.00;87.10;;;;;;4811062;29;20065;-71
2023/05/09 10:34:12;;;;;;;1.05;0.95;;;17.00;87.20;;;;;;4835189;29;20041;-72
2023/05/09 10:36:38;;;;;;;1.10;1.00;;;17.00;87.30;;;;;;4884231;29;20139;-72
2023/05/09 10:39:04;;;;;;;0.70;0.70;;;17.00;87.20;;;;;;4893957;29;20503;-72
2023/05/09 10:41:30;;;;;;;1.33;1.13;;;16.90;87.20;;;;;;4885652;29;20047;-72
2023/05/09 10:43:57;;;;;;;1.17;1.02;;;17.10;87.10;;;;;;4916007;29;20122;-71
2023/05/09 10:46:23;;;;;;;1.90;1.20;;;17.10;87.70;;;;;;4957282;28;20538;-71
2023/05/09 10:48:49;;;;;;;1.08;0.90;;;17.10;87.10;;;;;;5034848;28;20072;-72
2023/05/09 10:51:16;;;;;;;1.42;1.10;;;17.00;87.20;;;;;;5035448;28;20045;-71
2023/05/09 10:53:45;;;;;;;2.08;1.20;;;17.00;87.30;;;;;;5055196;28;20041;-72
2023/05/09 10:56:30;;;;;;;1.20;1.00;;;16.80;87.40;;;;;;5094325;28;20489;-72
2023/05/09 10:58:56;;;;;;;1.20;1.10;;;16.80;87.80;;;;;;5076454;28;20043;-72
2023/05/09 11:01:38;;;;;;;1.25;1.15;;;16.60;87.80;;;;;;5094270;28;20405;-71
2023/05/09 11:04:13;;;;;;;2.30;1.63;;;16.70;88.10;;;;;;5059360;28;20040;-71
2023/05/09 11:06:46;;;;;;;1.60;1.25;;;16.70;88.30;;;;;;5094183;28;20192;-72
2023/05/09 11:09:27;;;;;;;1.80;1.33;;;16.60;88.40;;;;;;5060672;28;20109;-71
2023/05/09 11:12:07;;;;;;;1.67;1.30;;;16.50;88.50;;;;;;5094182;28;20543;-71
2023/05/09 11:14:40;;;;;;;1.70;1.45;;;16.40;88.60;;;;;;5094342;28;20486;-72
2023/05/09 11:17:08;;;;;;;1.90;1.30;;;16.40;88.60;;;;;;5076387;28;20044;-72
2023/05/09 11:19:56;;;;;;;1.77;1.35;;;16.40;88.70;;;;;;5075887;28;20494;-72
2023/05/09 11:22:27;;;;;;;1.70;1.25;;;16.30;88.90;;;;;;5094015;28;20550;-71
2023/05/09 11:25:06;;;;;;;1.35;1.02;;;16.30;89.00;;;;;;5076195;28;20039;-72
2023/05/09 11:27:48;;;;;;;1.42;1.08;;;16.20;89.20;;;;;;5075703;28;20410;-72
2023/05/09 11:30:16;;;;;;;1.05;0.95;;;16.10;89.20;;;;;;5094018;28;20089;-73
2023/05/09 11:32:56;;;;;;;1.05;0.90;;;16.10;89.40;;;;;;5035387;28;20037;-72
2023/05/09 11:35:26;;;;;;;1.98;1.15;;;16.20;89.40;;;;;;5036080;28;20045;-72
2023/05/09 11:38:00;;;;;;;1.40;1.20;;;15.90;89.30;;;;;;5034714;28;20048;-72
2023/05/09 11:40:32;;;;;;;1.30;1.02;;;16.00;89.50;;;;;;5018604;28;20132;-72
2023/05/09 11:43:11;;;;;;;0.88;0.70;;;15.90;89.50;;;;;;5002443;28;20041;-72
2023/05/09 11:45:39;;;;;;;2.55;0.93;;;15.90;89.70;;;;;;5013468;28;20434;-72
2023/05/09 11:48:11;;;;;;;1.30;1.00;;;15.90;89.60;;;;;;5012564;28;20045;-72
2023/05/09 11:50:36;;;;;;;1.75;1.10;;;15.90;89.70;;;;;;5010086;28;20042;-72
2023/05/09 11:53:07;;;;;;;2.10;1.00;;;15.80;89.50;;;;;;4971353;28;20537;-72
2023/05/09 11:55:40;;;;;;;1.10;1.00;;;15.90;89.70;;;;;;4940646;28;20093;-72
2023/05/09 11:58:09;;;;;;;0.90;0.70;;;15.80;89.70;;;;;;4937784;29;20086;-72
2023/05/09 12:00:49;;;;;;;1.02;0.90;;;15.80;89.70;;;;;;4952647;28;21071;-72
2023/05/09 12:03:19;;;;;;;0.60;0.60;;;15.90;89.80;;;;;;4919348;29;20054;-73
2023/05/09 12:05:49;;;;;;;0.60;0.60;;;16.00;89.70;;;;;;4933189;29;20043;-73
2023/05/09 12:08:38;;;;;;;0.60;0.60;;;15.90;89.50;;;;;;4933354;29;20115;-73
2023/05/09 12:15:28;;;;;;;0.95;0.73;;;16.00;89.30;;;;;;4913166;29;20113;-73
2023/05/09 12:18:24;;;;;;;0.63;0.63;;;16.10;89.50;;;;;;4857064;29;20048;-72
2023/05/09 12:24:13;;;;;;;0.68;0.65;;;16.00;89.30;;;;;;4856652;29;20138;-73
2023/05/09 12:26:47;;;;;;;0.80;0.60;;;16.00;89.20;;;;;;4876950;29;20048;-72
2023/05/09 12:32:05;;;;;;;0.77;0.60;;;15.90;90.00;;;;;;4858588;29;20078;-73
2023/05/09 12:34:33;;;;;;;0.60;0.60;;;15.90;89.40;;;;;;4842624;29;20529;-73
2023/05/09 12:37:02;;;;;;;0.50;0.50;;;15.80;89.50;;;;;;4842817;29;20093;-72
2023/05/09 12:39:30;;;;;;;0.60;0.60;;;15.70;89.60;;;;;;4843085;29;21064;-73
2023/05/09 12:42:02;;;;;;;0.68;0.68;;;15.80;89.80;;;;;;4842099;29;20056;-72
2023/05/09 12:44:30;;;;;;;0.60;0.57;;;15.80;89.80;;;;;;4856098;29;20083;-72
2023/05/09 12:47:40;;;;;;;0.55;0.55;;;15.70;89.70;;;;;;4857423;29;20042;-73
2023/05/09 12:50:26;;;;;;;0.70;0.70;;;15.70;89.80;;;;;;4867050;29;21316;-73
2023/05/09 12:53:00;;;;;;;0.60;0.52;;;15.80;89.80;;;;;;4860439;29;20559;-73
2023/05/09 12:55:26;;;;;;;0.70;0.70;;;15.80;89.80;;;;;;4857752;29;20056;-72
2023/05/09 12:57:58;;;;;;;0.57;0.50;;;15.60;89.80;;;;;;4857972;29;20045;-73
2023/05/09 13:00:46;;;;;;;0.70;0.70;;;15.70;89.80;;;;;;4871497;29;20047;-72
2023/05/09 13:07:21;;;;;;;0.70;0.70;;;15.60;89.70;;;;;;4872089;29;20117;-72
2023/05/09 13:09:55;;;;;;;0.60;0.60;;;15.60;89.90;;;;;;4876494;29;20512;-73
2023/05/09 13:12:21;;;;;;;0.50;0.50;;;15.60;89.90;;;;;;4886490;29;20040;-73
2023/05/09 13:14:47;;;;;;;0.70;0.70;;;15.70;90.00;;;;;;4914112;29;20122;-73
2023/05/09 13:17:12;;;;;;;0.50;0.50;;;15.70;90.00;;;;;;4928253;29;20537;-72
2023/05/09 13:19:38;;;;;;;0.50;0.50;;;15.70;90.00;;;;;;4952508;29;20151;-73
2023/05/09 13:22:09;;;;;;;0.55;0.55;;;15.70;89.90;;;;;;4935783;29;20039;-73
2023/05/09 13:24:37;;;;;;;0.75;0.65;;;15.90;90.00;;;;;;4935984;29;20066;-72
2023/05/09 13:27:06;;;;;;;0.52;0.52;;;15.80;89.80;;;;;;4967013;28;20121;-72
2023/05/09 13:29:34;;;;;;;0.50;0.50;;;15.80;89.90;;;;;;4955244;28;20595;-72
2023/05/09 13:32:03;;;;;;;0.43;0.43;;;15.80;90.00;;;;;;4954957;28;20043;-72
2023/05/09 13:34:30;;;;;;;0.47;0.47;;;15.80;90.00;;;;;;4975187;28;20108;-72
2023/05/09 13:37:05;;;;;;;0.80;0.68;;;15.70;90.00;;;;;;4993337;28;20036;-73
2023/05/09 13:39:33;;;;;;;0.65;0.60;;;15.70;90.00;;;;;;5056965;28;20044;-73
2023/05/09 13:41:58;;;;;;;0.40;0.40;;;15.70;90.10;;;;;;5072734;28;20113;-72